sensor_id;sensor_type;location;lat;lon;timestamp;P1;durP1;ratioP1;P2;durP2;ratioP2
62459;SDS011;48510;39.364;-9.378;2022-07-21T00:01:58;34.80;;;8.48;;
62459;SDS011;48510;39.364;-9.378;2022-07-21T00:03:58;35.83;;;8.52;;
62459;SDS011;48510;39.364;-9.378;2022-07-21T00:05:59;37.40;;;8.60;;
62459;SDS011;48510;39.364;-9.378;2022-07-21T00:08:00;34.78;;;8.57;;
62459;SDS011;48510;39.364;-9.378;2022-07-21T00:10:01;33.05;;;8.27;;
62459;SDS011;48510;39.364;-9.378;2022-07-21T00:12:03;32.50;;;8.43;;
62459;SDS011;48510;39.364;-9.378;2022-07-21T00:14:06;38.05;;;8.70;;
62459;SDS011;48510;39.364;-9.378;2022-07-21T00:16:09;34.00;;;8.20;;
62459;SDS011;48510;39.364;-9.378;2022-07-21T00:18:10;38.13;;;8.65;;
62459;SDS011;48510;39.364;-9.378;2022-07-21T00:20:12;37.30;;;9.02;;
62459;SDS011;48510;39.364;-9.378;2022-07-21T00:22:14;31.15;;;7.93;;
62459;SDS011;48510;39.364;-9.378;2022-07-21T00:24:15;29.17;;;7.90;;
62459;SDS011;48510;39.364;-9.378;2022-07-21T00:26:15;34.75;;;8.35;;
62459;SDS011;48510;39.364;-9.378;2022-07-21T00:28:17;33.63;;;8.85;;
62459;SDS011;48510;39.364;-9.378;2022-07-21T00:30:18;32.50;;;8.75;;
62459;SDS011;48510;39.364;-9.378;2022-07-21T00:32:19;36.25;;;8.23;;
62459;SDS011;48510;39.364;-9.378;2022-07-21T00:34:19;32.00;;;8.10;;
62459;SDS011;48510;39.364;-9.378;2022-07-21T00:36:20;30.17;;;8.35;;
62459;SDS011;48510;39.364;-9.378;2022-07-21T00:38:21;33.70;;;9.00;;
62459;SDS011;48510;39.364;-9.378;2022-07-21T00:40:22;32.83;;;8.68;;
62459;SDS011;48510;39.364;-9.378;2022-07-21T00:42:24;36.00;;;8.85;;
62459;SDS011;48510;39.364;-9.378;2022-07-21T00:44:27;36.35;;;8.30;;
62459;SDS011;48510;39.364;-9.378;2022-07-21T00:46:28;30.48;;;8.20;;
62459;SDS011;48510;39.364;-9.378;2022-07-21T00:48:29;38.85;;;8.55;;
62459;SDS011;48510;39.364;-9.378;2022-07-21T00:50:29;32.13;;;9.07;;
62459;SDS011;48510;39.364;-9.378;2022-07-21T00:52:32;28.92;;;7.95;;
62459;SDS011;48510;39.364;-9.378;2022-07-21T00:54:33;37.05;;;9.30;;
62459;SDS011;48510;39.364;-9.378;2022-07-21T00:56:34;41.63;;;9.60;;
62459;SDS011;48510;39.364;-9.378;2022-07-21T00:58:36;38.78;;;10.43;;
62459;SDS011;48510;39.364;-9.378;2022-07-21T01:00:36;41.70;;;9.70;;
62459;SDS011;48510;39.364;-9.378;2022-07-21T01:02:37;42.33;;;9.98;;
62459;SDS011;48510;39.364;-9.378;2022-07-21T01:04:38;36.33;;;9.77;;
62459;SDS011;48510;39.364;-9.378;2022-07-21T01:06:39;34.38;;;9.15;;
62459;SDS011;48510;39.364;-9.378;2022-07-21T01:08:40;40.45;;;9.60;;
62459;SDS011;48510;39.364;-9.378;2022-07-21T01:10:41;32.80;;;9.23;;
62459;SDS011;48510;39.364;-9.378;2022-07-21T01:12:42;36.20;;;8.93;;
62459;SDS011;48510;39.364;-9.378;2022-07-21T01:14:43;39.17;;;9.82;;
62459;SDS011;48510;39.364;-9.378;2022-07-21T01:16:45;45.45;;;10.10;;
62459;SDS011;48510;39.364;-9.378;2022-07-21T01:18:46;39.90;;;10.00;;
62459;SDS011;48510;39.364;-9.378;2022-07-21T01:20:54;29.60;;;9.00;;
62459;SDS011;48510;39.364;-9.378;2022-07-21T01:22:55;38.58;;;9.70;;
62459;SDS011;48510;39.364;-9.378;2022-07-21T01:24:56;36.03;;;9.48;;
62459;SDS011;48510;39.364;-9.378;2022-07-21T01:26:57;32.65;;;9.60;;
62459;SDS011;48510;39.364;-9.378;2022-07-21T01:28:58;34.40;;;9.65;;
62459;SDS011;48510;39.364;-9.378;2022-07-21T01:30:59;37.97;;;10.25;;
62459;SDS011;48510;39.364;-9.378;2022-07-21T01:32:59;36.05;;;10.50;;
62459;SDS011;48510;39.364;-9.378;2022-07-21T01:35:01;36.67;;;10.50;;
62459;SDS011;48510;39.364;-9.378;2022-07-21T01:37:02;37.47;;;10.82;;
62459;SDS011;48510;39.364;-9.378;2022-07-21T01:39:04;33.72;;;10.23;;
62459;SDS011;48510;39.364;-9.378;2022-07-21T01:41:24;39.65;;;10.18;;
62459;SDS011;48510;39.364;-9.378;2022-07-21T01:43:33;37.83;;;10.98;;
62459;SDS011;48510;39.364;-9.378;2022-07-21T01:45:33;32.97;;;9.88;;
62459;SDS011;48510;39.364;-9.378;2022-07-21T01:47:34;28.10;;;9.70;;
62459;SDS011;48510;39.364;-9.378;2022-07-21T01:49:35;35.83;;;10.05;;
62459;SDS011;48510;39.364;-9.378;2022-07-21T01:51:36;30.33;;;9.75;;
62459;SDS011;48510;39.364;-9.378;2022-07-21T01:53:38;40.83;;;11.48;;
62459;SDS011;48510;39.364;-9.378;2022-07-21T01:55:39;35.35;;;10.63;;
62459;SDS011;48510;39.364;-9.378;2022-07-21T01:57:40;35.10;;;11.05;;
62459;SDS011;48510;39.364;-9.378;2022-07-21T01:59:41;36.25;;;10.90;;
62459;SDS011;48510;39.364;-9.378;2022-07-21T02:01:42;36.45;;;11.32;;
62459;SDS011;48510;39.364;-9.378;2022-07-21T02:03:43;35.13;;;10.15;;
62459;SDS011;48510;39.364;-9.378;2022-07-21T02:05:44;37.85;;;10.85;;
62459;SDS011;48510;39.364;-9.378;2022-07-21T02:07:45;39.13;;;10.98;;
62459;SDS011;48510;39.364;-9.378;2022-07-21T02:09:46;34.08;;;10.60;;
62459;SDS011;48510;39.364;-9.378;2022-07-21T02:11:47;41.30;;;10.93;;
62459;SDS011;48510;39.364;-9.378;2022-07-21T02:13:47;28.77;;;9.77;;
62459;SDS011;48510;39.364;-9.378;2022-07-21T02:15:49;32.28;;;9.85;;
62459;SDS011;48510;39.364;-9.378;2022-07-21T02:17:50;35.00;;;11.20;;
62459;SDS011;48510;39.364;-9.378;2022-07-21T02:19:51;34.92;;;10.27;;
62459;SDS011;48510;39.364;-9.378;2022-07-21T02:21:51;36.25;;;10.93;;
62459;SDS011;48510;39.364;-9.378;2022-07-21T02:23:52;28.98;;;10.65;;
62459;SDS011;48510;39.364;-9.378;2022-07-21T02:25:53;37.75;;;11.00;;
62459;SDS011;48510;39.364;-9.378;2022-07-21T02:27:54;33.22;;;10.55;;
62459;SDS011;48510;39.364;-9.378;2022-07-21T02:29:55;38.95;;;11.25;;
62459;SDS011;48510;39.364;-9.378;2022-07-21T02:31:56;36.38;;;11.50;;
62459;SDS011;48510;39.364;-9.378;2022-07-21T02:33:57;34.95;;;10.98;;
62459;SDS011;48510;39.364;-9.378;2022-07-21T02:35:57;36.90;;;11.45;;
62459;SDS011;48510;39.364;-9.378;2022-07-21T02:37:58;38.25;;;11.50;;
62459;SDS011;48510;39.364;-9.378;2022-07-21T02:39:59;34.75;;;12.23;;
62459;SDS011;48510;39.364;-9.378;2022-07-21T02:42:00;35.72;;;11.38;;
62459;SDS011;48510;39.364;-9.378;2022-07-21T02:44:01;35.75;;;11.68;;
62459;SDS011;48510;39.364;-9.378;2022-07-21T02:46:02;33.35;;;11.68;;
62459;SDS011;48510;39.364;-9.378;2022-07-21T02:48:06;32.67;;;11.35;;
62459;SDS011;48510;39.364;-9.378;2022-07-21T02:50:09;37.38;;;11.52;;
62459;SDS011;48510;39.364;-9.378;2022-07-21T02:52:09;41.78;;;12.55;;
62459;SDS011;48510;39.364;-9.378;2022-07-21T02:54:10;43.33;;;12.90;;
62459;SDS011;48510;39.364;-9.378;2022-07-21T02:56:11;51.40;;;13.15;;
62459;SDS011;48510;39.364;-9.378;2022-07-21T03:00:17;36.15;;;11.18;;
62459;SDS011;48510;39.364;-9.378;2022-07-21T03:02:18;45.45;;;11.80;;
62459;SDS011;48510;39.364;-9.378;2022-07-21T03:04:18;31.23;;;11.35;;
62459;SDS011;48510;39.364;-9.378;2022-07-21T03:06:19;37.53;;;11.60;;
62459;SDS011;48510;39.364;-9.378;2022-07-21T03:08:20;31.55;;;10.90;;
62459;SDS011;48510;39.364;-9.378;2022-07-21T03:10:22;37.97;;;12.32;;
62459;SDS011;48510;39.364;-9.378;2022-07-21T03:12:22;40.17;;;12.20;;
62459;SDS011;48510;39.364;-9.378;2022-07-21T03:14:23;40.97;;;12.95;;
62459;SDS011;48510;39.364;-9.378;2022-07-21T03:16:24;46.75;;;13.02;;
62459;SDS011;48510;39.364;-9.378;2022-07-21T03:18:25;43.13;;;13.00;;
62459;SDS011;48510;39.364;-9.378;2022-07-21T03:20:26;35.17;;;12.35;;
62459;SDS011;48510;39.364;-9.378;2022-07-21T03:22:29;39.33;;;12.30;;
62459;SDS011;48510;39.364;-9.378;2022-07-21T03:24:30;33.55;;;11.90;;
62459;SDS011;48510;39.364;-9.378;2022-07-21T03:26:30;31.90;;;12.00;;
62459;SDS011;48510;39.364;-9.378;2022-07-21T03:28:31;32.88;;;12.02;;
62459;SDS011;48510;39.364;-9.378;2022-07-21T03:30:32;31.65;;;11.95;;
62459;SDS011;48510;39.364;-9.378;2022-07-21T03:32:33;41.65;;;12.40;;
62459;SDS011;48510;39.364;-9.378;2022-07-21T03:34:34;39.80;;;12.27;;
62459;SDS011;48510;39.364;-9.378;2022-07-21T03:36:34;39.00;;;12.27;;
62459;SDS011;48510;39.364;-9.378;2022-07-21T03:38:35;35.55;;;12.07;;
62459;SDS011;48510;39.364;-9.378;2022-07-21T03:40:36;36.33;;;12.07;;
62459;SDS011;48510;39.364;-9.378;2022-07-21T03:42:38;41.00;;;12.98;;
62459;SDS011;48510;39.364;-9.378;2022-07-21T03:44:39;33.55;;;11.73;;
62459;SDS011;48510;39.364;-9.378;2022-07-21T03:46:40;33.13;;;12.65;;
62459;SDS011;48510;39.364;-9.378;2022-07-21T03:48:40;37.55;;;13.27;;
62459;SDS011;48510;39.364;-9.378;2022-07-21T03:50:41;41.72;;;13.07;;
62459;SDS011;48510;39.364;-9.378;2022-07-21T03:52:45;36.47;;;12.85;;
62459;SDS011;48510;39.364;-9.378;2022-07-21T03:54:46;46.92;;;14.93;;
62459;SDS011;48510;39.364;-9.378;2022-07-21T03:56:47;34.58;;;13.40;;
62459;SDS011;48510;39.364;-9.378;2022-07-21T03:58:47;46.97;;;13.48;;
62459;SDS011;48510;39.364;-9.378;2022-07-21T04:00:48;37.03;;;12.60;;
62459;SDS011;48510;39.364;-9.378;2022-07-21T04:02:49;37.38;;;12.35;;
62459;SDS011;48510;39.364;-9.378;2022-07-21T04:04:50;38.90;;;12.80;;
62459;SDS011;48510;39.364;-9.378;2022-07-21T04:06:51;33.58;;;11.73;;
62459;SDS011;48510;39.364;-9.378;2022-07-21T04:08:52;40.17;;;13.65;;
62459;SDS011;48510;39.364;-9.378;2022-07-21T04:10:52;40.55;;;12.75;;
62459;SDS011;48510;39.364;-9.378;2022-07-21T04:12:54;35.97;;;13.38;;
62459;SDS011;48510;39.364;-9.378;2022-07-21T04:14:55;37.90;;;13.35;;
62459;SDS011;48510;39.364;-9.378;2022-07-21T04:16:56;34.60;;;12.77;;
62459;SDS011;48510;39.364;-9.378;2022-07-21T04:18:56;40.90;;;13.57;;
62459;SDS011;48510;39.364;-9.378;2022-07-21T04:20:57;40.95;;;12.95;;
62459;SDS011;48510;39.364;-9.378;2022-07-21T04:22:58;44.30;;;14.45;;
62459;SDS011;48510;39.364;-9.378;2022-07-21T04:24:58;41.58;;;13.68;;
62459;SDS011;48510;39.364;-9.378;2022-07-21T04:27:02;36.47;;;13.30;;
62459;SDS011;48510;39.364;-9.378;2022-07-21T04:29:03;47.20;;;14.23;;
62459;SDS011;48510;39.364;-9.378;2022-07-21T04:31:04;40.95;;;13.30;;
62459;SDS011;48510;39.364;-9.378;2022-07-21T04:33:04;38.45;;;13.85;;
62459;SDS011;48510;39.364;-9.378;2022-07-21T04:35:07;39.47;;;14.45;;
62459;SDS011;48510;39.364;-9.378;2022-07-21T04:37:08;43.10;;;13.60;;
62459;SDS011;48510;39.364;-9.378;2022-07-21T04:39:08;49.63;;;15.15;;
62459;SDS011;48510;39.364;-9.378;2022-07-21T04:41:09;39.00;;;14.07;;
62459;SDS011;48510;39.364;-9.378;2022-07-21T04:43:10;38.85;;;13.40;;
62459;SDS011;48510;39.364;-9.378;2022-07-21T04:45:11;38.38;;;13.38;;
62459;SDS011;48510;39.364;-9.378;2022-07-21T04:47:13;39.97;;;13.95;;
62459;SDS011;48510;39.364;-9.378;2022-07-21T04:49:13;30.55;;;13.30;;
62459;SDS011;48510;39.364;-9.378;2022-07-21T04:51:14;38.63;;;13.93;;
62459;SDS011;48510;39.364;-9.378;2022-07-21T04:53:15;34.85;;;13.50;;
62459;SDS011;48510;39.364;-9.378;2022-07-21T04:55:16;41.88;;;13.98;;
62459;SDS011;48510;39.364;-9.378;2022-07-21T04:57:17;40.47;;;14.07;;
62459;SDS011;48510;39.364;-9.378;2022-07-21T04:59:18;40.63;;;13.70;;
62459;SDS011;48510;39.364;-9.378;2022-07-21T05:01:19;36.08;;;13.77;;
62459;SDS011;48510;39.364;-9.378;2022-07-21T05:03:19;33.58;;;12.57;;
62459;SDS011;48510;39.364;-9.378;2022-07-21T05:05:20;32.72;;;11.52;;
62459;SDS011;48510;39.364;-9.378;2022-07-21T05:07:21;28.35;;;11.70;;
62459;SDS011;48510;39.364;-9.378;2022-07-21T05:09:22;35.22;;;12.77;;
62459;SDS011;48510;39.364;-9.378;2022-07-21T05:11:23;34.47;;;12.93;;
62459;SDS011;48510;39.364;-9.378;2022-07-21T05:13:24;40.20;;;13.27;;
62459;SDS011;48510;39.364;-9.378;2022-07-21T05:15:25;38.08;;;13.82;;
62459;SDS011;48510;39.364;-9.378;2022-07-21T05:17:25;39.75;;;13.38;;
62459;SDS011;48510;39.364;-9.378;2022-07-21T05:19:26;42.70;;;13.30;;
62459;SDS011;48510;39.364;-9.378;2022-07-21T05:21:27;42.50;;;12.98;;
62459;SDS011;48510;39.364;-9.378;2022-07-21T05:23:27;41.25;;;13.00;;
62459;SDS011;48510;39.364;-9.378;2022-07-21T05:25:28;32.88;;;11.68;;
62459;SDS011;48510;39.364;-9.378;2022-07-21T05:27:32;36.03;;;13.10;;
62459;SDS011;48510;39.364;-9.378;2022-07-21T05:29:33;41.42;;;13.18;;
62459;SDS011;48510;39.364;-9.378;2022-07-21T05:31:34;39.72;;;12.55;;
62459;SDS011;48510;39.364;-9.378;2022-07-21T05:33:35;36.58;;;12.68;;
62459;SDS011;48510;39.364;-9.378;2022-07-21T05:35:36;38.28;;;13.32;;
62459;SDS011;48510;39.364;-9.378;2022-07-21T05:37:40;36.53;;;12.55;;
62459;SDS011;48510;39.364;-9.378;2022-07-21T05:39:41;38.15;;;13.10;;
62459;SDS011;48510;39.364;-9.378;2022-07-21T05:41:42;46.33;;;13.48;;
62459;SDS011;48510;39.364;-9.378;2022-07-21T05:43:43;37.28;;;13.25;;
62459;SDS011;48510;39.364;-9.378;2022-07-21T05:45:43;43.20;;;12.80;;
62459;SDS011;48510;39.364;-9.378;2022-07-21T05:47:44;34.00;;;11.52;;
62459;SDS011;48510;39.364;-9.378;2022-07-21T05:49:45;39.72;;;12.27;;
62459;SDS011;48510;39.364;-9.378;2022-07-21T05:51:45;43.72;;;12.82;;
62459;SDS011;48510;39.364;-9.378;2022-07-21T05:53:46;36.65;;;12.23;;
62459;SDS011;48510;39.364;-9.378;2022-07-21T05:55:47;35.40;;;12.20;;
62459;SDS011;48510;39.364;-9.378;2022-07-21T05:57:47;31.80;;;12.02;;
62459;SDS011;48510;39.364;-9.378;2022-07-21T05:59:48;32.92;;;12.23;;
62459;SDS011;48510;39.364;-9.378;2022-07-21T06:01:49;35.65;;;12.30;;
62459;SDS011;48510;39.364;-9.378;2022-07-21T06:03:50;31.88;;;11.65;;
62459;SDS011;48510;39.364;-9.378;2022-07-21T06:05:51;36.90;;;13.27;;
62459;SDS011;48510;39.364;-9.378;2022-07-21T06:07:52;32.17;;;11.68;;
62459;SDS011;48510;39.364;-9.378;2022-07-21T06:09:52;35.08;;;11.95;;
62459;SDS011;48510;39.364;-9.378;2022-07-21T06:11:53;35.05;;;12.18;;
62459;SDS011;48510;39.364;-9.378;2022-07-21T06:13:54;39.53;;;12.20;;
62459;SDS011;48510;39.364;-9.378;2022-07-21T06:15:55;35.85;;;12.77;;
62459;SDS011;48510;39.364;-9.378;2022-07-21T06:17:56;36.53;;;13.00;;
62459;SDS011;48510;39.364;-9.378;2022-07-21T06:19:57;33.05;;;11.30;;
62459;SDS011;48510;39.364;-9.378;2022-07-21T06:21:58;33.50;;;12.50;;
62459;SDS011;48510;39.364;-9.378;2022-07-21T06:23:59;44.30;;;13.25;;
62459;SDS011;48510;39.364;-9.378;2022-07-21T06:26:00;41.70;;;13.45;;
62459;SDS011;48510;39.364;-9.378;2022-07-21T06:28:00;39.47;;;12.85;;
62459;SDS011;48510;39.364;-9.378;2022-07-21T06:30:01;43.58;;;14.27;;
62459;SDS011;48510;39.364;-9.378;2022-07-21T06:32:02;35.50;;;12.13;;
62459;SDS011;48510;39.364;-9.378;2022-07-21T06:34:03;31.27;;;12.88;;
62459;SDS011;48510;39.364;-9.378;2022-07-21T06:36:05;29.48;;;12.05;;
62459;SDS011;48510;39.364;-9.378;2022-07-21T06:38:07;35.50;;;12.40;;
62459;SDS011;48510;39.364;-9.378;2022-07-21T06:40:08;34.45;;;13.23;;
62459;SDS011;48510;39.364;-9.378;2022-07-21T06:42:09;44.45;;;13.93;;
62459;SDS011;48510;39.364;-9.378;2022-07-21T06:44:10;32.90;;;12.32;;
62459;SDS011;48510;39.364;-9.378;2022-07-21T06:46:11;34.92;;;11.95;;
62459;SDS011;48510;39.364;-9.378;2022-07-21T06:48:12;29.75;;;11.73;;
62459;SDS011;48510;39.364;-9.378;2022-07-21T06:50:12;35.28;;;12.05;;
62459;SDS011;48510;39.364;-9.378;2022-07-21T06:52:13;30.70;;;12.00;;
62459;SDS011;48510;39.364;-9.378;2022-07-21T06:54:16;29.63;;;12.25;;
62459;SDS011;48510;39.364;-9.378;2022-07-21T06:56:17;30.48;;;11.88;;
62459;SDS011;48510;39.364;-9.378;2022-07-21T06:58:20;33.25;;;11.93;;
62459;SDS011;48510;39.364;-9.378;2022-07-21T07:00:22;33.28;;;12.55;;
62459;SDS011;48510;39.364;-9.378;2022-07-21T07:02:23;32.90;;;12.75;;
62459;SDS011;48510;39.364;-9.378;2022-07-21T07:04:24;29.02;;;11.43;;
62459;SDS011;48510;39.364;-9.378;2022-07-21T07:06:26;27.50;;;11.02;;
62459;SDS011;48510;39.364;-9.378;2022-07-21T07:08:27;33.92;;;12.05;;
62459;SDS011;48510;39.364;-9.378;2022-07-21T07:10:28;30.98;;;11.75;;
62459;SDS011;48510;39.364;-9.378;2022-07-21T07:12:29;32.17;;;12.15;;
62459;SDS011;48510;39.364;-9.378;2022-07-21T07:14:30;31.48;;;11.30;;
62459;SDS011;48510;39.364;-9.378;2022-07-21T07:16:31;31.85;;;11.50;;
62459;SDS011;48510;39.364;-9.378;2022-07-21T07:18:31;29.27;;;11.13;;
62459;SDS011;48510;39.364;-9.378;2022-07-21T07:20:33;31.10;;;11.55;;
62459;SDS011;48510;39.364;-9.378;2022-07-21T07:22:33;34.22;;;11.80;;
62459;SDS011;48510;39.364;-9.378;2022-07-21T07:24:34;29.52;;;12.20;;
62459;SDS011;48510;39.364;-9.378;2022-07-21T07:26:35;29.30;;;11.20;;
62459;SDS011;48510;39.364;-9.378;2022-07-21T07:28:36;31.17;;;11.75;;
62459;SDS011;48510;39.364;-9.378;2022-07-21T07:30:37;31.92;;;11.52;;
62459;SDS011;48510;39.364;-9.378;2022-07-21T07:32:38;36.78;;;12.20;;
62459;SDS011;48510;39.364;-9.378;2022-07-21T07:34:40;35.38;;;12.38;;
62459;SDS011;48510;39.364;-9.378;2022-07-21T07:36:41;33.50;;;12.18;;
62459;SDS011;48510;39.364;-9.378;2022-07-21T07:38:42;27.67;;;11.20;;
62459;SDS011;48510;39.364;-9.378;2022-07-21T07:40:43;25.15;;;10.77;;
62459;SDS011;48510;39.364;-9.378;2022-07-21T07:42:44;27.77;;;11.75;;
62459;SDS011;48510;39.364;-9.378;2022-07-21T07:44:45;25.00;;;10.90;;
62459;SDS011;48510;39.364;-9.378;2022-07-21T07:46:46;33.25;;;11.25;;
62459;SDS011;48510;39.364;-9.378;2022-07-21T07:48:47;29.13;;;11.02;;
62459;SDS011;48510;39.364;-9.378;2022-07-21T07:50:48;32.05;;;11.30;;
62459;SDS011;48510;39.364;-9.378;2022-07-21T07:52:48;32.65;;;10.63;;
62459;SDS011;48510;39.364;-9.378;2022-07-21T07:54:49;25.65;;;10.10;;
62459;SDS011;48510;39.364;-9.378;2022-07-21T07:56:50;22.65;;;10.10;;
62459;SDS011;48510;39.364;-9.378;2022-07-21T07:58:51;33.20;;;11.88;;
62459;SDS011;48510;39.364;-9.378;2022-07-21T08:00:52;26.23;;;10.32;;
62459;SDS011;48510;39.364;-9.378;2022-07-21T08:02:54;37.33;;;11.45;;
62459;SDS011;48510;39.364;-9.378;2022-07-21T08:04:54;41.55;;;11.35;;
62459;SDS011;48510;39.364;-9.378;2022-07-21T08:06:55;35.08;;;12.05;;
62459;SDS011;48510;39.364;-9.378;2022-07-21T08:08:56;37.10;;;11.93;;
62459;SDS011;48510;39.364;-9.378;2022-07-21T08:10:57;34.70;;;11.98;;
62459;SDS011;48510;39.364;-9.378;2022-07-21T08:12:58;35.53;;;11.45;;
62459;SDS011;48510;39.364;-9.378;2022-07-21T08:14:58;29.02;;;10.93;;
62459;SDS011;48510;39.364;-9.378;2022-07-21T08:16:59;34.03;;;11.15;;
62459;SDS011;48510;39.364;-9.378;2022-07-21T08:19:00;32.28;;;10.45;;
62459;SDS011;48510;39.364;-9.378;2022-07-21T08:21:01;34.10;;;10.95;;
62459;SDS011;48510;39.364;-9.378;2022-07-21T08:23:01;22.42;;;9.90;;
62459;SDS011;48510;39.364;-9.378;2022-07-21T08:25:03;27.25;;;10.05;;
62459;SDS011;48510;39.364;-9.378;2022-07-21T08:27:04;27.33;;;10.38;;
62459;SDS011;48510;39.364;-9.378;2022-07-21T08:29:05;30.63;;;10.32;;
62459;SDS011;48510;39.364;-9.378;2022-07-21T08:31:06;29.90;;;9.15;;
62459;SDS011;48510;39.364;-9.378;2022-07-21T08:33:07;32.65;;;10.50;;
62459;SDS011;48510;39.364;-9.378;2022-07-21T08:35:08;33.60;;;10.20;;
62459;SDS011;48510;39.364;-9.378;2022-07-21T08:37:09;38.63;;;11.15;;
62459;SDS011;48510;39.364;-9.378;2022-07-21T08:39:10;31.25;;;10.20;;
62459;SDS011;48510;39.364;-9.378;2022-07-21T08:41:11;22.55;;;9.15;;
62459;SDS011;48510;39.364;-9.378;2022-07-21T08:43:13;19.17;;;9.10;;
62459;SDS011;48510;39.364;-9.378;2022-07-21T08:45:15;35.33;;;10.63;;
62459;SDS011;48510;39.364;-9.378;2022-07-21T08:47:16;27.67;;;10.48;;
62459;SDS011;48510;39.364;-9.378;2022-07-21T08:49:19;29.05;;;10.68;;
62459;SDS011;48510;39.364;-9.378;2022-07-21T08:51:23;34.30;;;10.93;;
62459;SDS011;48510;39.364;-9.378;2022-07-21T08:53:25;31.35;;;10.32;;
62459;SDS011;48510;39.364;-9.378;2022-07-21T08:55:30;27.98;;;10.10;;
62459;SDS011;48510;39.364;-9.378;2022-07-21T08:57:32;29.90;;;10.30;;
62459;SDS011;48510;39.364;-9.378;2022-07-21T08:59:33;28.88;;;9.48;;
62459;SDS011;48510;39.364;-9.378;2022-07-21T09:01:34;27.92;;;9.80;;
62459;SDS011;48510;39.364;-9.378;2022-07-21T09:03:35;25.17;;;9.63;;
62459;SDS011;48510;39.364;-9.378;2022-07-21T09:05:36;32.67;;;10.10;;
62459;SDS011;48510;39.364;-9.378;2022-07-21T09:07:54;27.63;;;9.85;;
62459;SDS011;48510;39.364;-9.378;2022-07-21T09:10:01;27.00;;;9.88;;
62459;SDS011;48510;39.364;-9.378;2022-07-21T09:12:05;25.77;;;9.15;;
62459;SDS011;48510;39.364;-9.378;2022-07-21T09:14:07;20.13;;;8.48;;
62459;SDS011;48510;39.364;-9.378;2022-07-21T09:16:14;25.23;;;9.50;;
62459;SDS011;48510;39.364;-9.378;2022-07-21T09:18:21;28.50;;;9.98;;
62459;SDS011;48510;39.364;-9.378;2022-07-21T09:20:22;31.13;;;10.27;;
62459;SDS011;48510;39.364;-9.378;2022-07-21T09:22:25;34.10;;;10.40;;
62459;SDS011;48510;39.364;-9.378;2022-07-21T09:24:29;26.98;;;9.50;;
62459;SDS011;48510;39.364;-9.378;2022-07-21T09:29:08;25.73;;;9.75;;
62459;SDS011;48510;39.364;-9.378;2022-07-21T09:31:10;21.40;;;8.82;;
62459;SDS011;48510;39.364;-9.378;2022-07-21T09:33:21;22.85;;;8.82;;
62459;SDS011;48510;39.364;-9.378;2022-07-21T09:35:26;27.25;;;8.80;;
62459;SDS011;48510;39.364;-9.378;2022-07-21T09:37:27;21.42;;;8.93;;
62459;SDS011;48510;39.364;-9.378;2022-07-21T09:41:45;25.60;;;9.52;;
62459;SDS011;48510;39.364;-9.378;2022-07-21T09:43:47;32.08;;;10.02;;
62459;SDS011;48510;39.364;-9.378;2022-07-21T09:45:49;26.10;;;9.98;;
62459;SDS011;48510;39.364;-9.378;2022-07-21T09:47:51;31.13;;;10.20;;
62459;SDS011;48510;39.364;-9.378;2022-07-21T09:49:52;34.70;;;10.73;;
62459;SDS011;48510;39.364;-9.378;2022-07-21T09:51:54;37.45;;;10.30;;
62459;SDS011;48510;39.364;-9.378;2022-07-21T09:55:56;28.13;;;10.57;;
62459;SDS011;48510;39.364;-9.378;2022-07-21T09:57:56;30.10;;;10.73;;
62459;SDS011;48510;39.364;-9.378;2022-07-21T09:59:59;23.88;;;10.52;;
62459;SDS011;48510;39.364;-9.378;2022-07-21T10:02:00;25.13;;;9.85;;
62459;SDS011;48510;39.364;-9.378;2022-07-21T10:04:02;19.02;;;8.73;;
62459;SDS011;48510;39.364;-9.378;2022-07-21T10:06:04;25.67;;;9.95;;
62459;SDS011;48510;39.364;-9.378;2022-07-21T10:08:06;17.75;;;8.57;;
62459;SDS011;48510;39.364;-9.378;2022-07-21T10:10:07;26.25;;;8.82;;
62459;SDS011;48510;39.364;-9.378;2022-07-21T10:12:08;23.25;;;9.35;;
62459;SDS011;48510;39.364;-9.378;2022-07-21T10:14:12;22.20;;;8.88;;
62459;SDS011;48510;39.364;-9.378;2022-07-21T10:16:14;26.90;;;9.30;;
62459;SDS011;48510;39.364;-9.378;2022-07-21T10:18:16;23.17;;;8.88;;
62459;SDS011;48510;39.364;-9.378;2022-07-21T10:20:31;21.95;;;8.73;;
62459;SDS011;48510;39.364;-9.378;2022-07-21T10:24:37;20.88;;;8.18;;
62459;SDS011;48510;39.364;-9.378;2022-07-21T10:26:38;21.75;;;8.23;;
62459;SDS011;48510;39.364;-9.378;2022-07-21T10:28:59;23.02;;;8.73;;
62459;SDS011;48510;39.364;-9.378;2022-07-21T10:31:00;26.23;;;8.27;;
62459;SDS011;48510;39.364;-9.378;2022-07-21T10:33:17;24.85;;;8.20;;
62459;SDS011;48510;39.364;-9.378;2022-07-21T10:35:31;28.45;;;8.80;;
62459;SDS011;48510;39.364;-9.378;2022-07-21T10:39:39;22.25;;;8.18;;
62459;SDS011;48510;39.364;-9.378;2022-07-21T10:41:48;21.70;;;8.00;;
62459;SDS011;48510;39.364;-9.378;2022-07-21T10:43:51;23.67;;;8.80;;
62459;SDS011;48510;39.364;-9.378;2022-07-21T10:45:52;18.90;;;7.82;;
62459;SDS011;48510;39.364;-9.378;2022-07-21T10:47:55;18.60;;;7.28;;
62459;SDS011;48510;39.364;-9.378;2022-07-21T10:49:56;19.23;;;7.63;;
62459;SDS011;48510;39.364;-9.378;2022-07-21T10:51:59;20.88;;;7.60;;
62459;SDS011;48510;39.364;-9.378;2022-07-21T10:54:16;17.83;;;8.23;;
62459;SDS011;48510;39.364;-9.378;2022-07-21T10:56:25;17.63;;;7.57;;
62459;SDS011;48510;39.364;-9.378;2022-07-21T10:58:41;23.13;;;7.75;;
62459;SDS011;48510;39.364;-9.378;2022-07-21T11:00:51;19.63;;;7.75;;
62459;SDS011;48510;39.364;-9.378;2022-07-21T11:03:00;22.92;;;7.38;;
62459;SDS011;48510;39.364;-9.378;2022-07-21T11:05:04;23.30;;;7.88;;
62459;SDS011;48510;39.364;-9.378;2022-07-21T11:07:06;24.33;;;8.35;;
62459;SDS011;48510;39.364;-9.378;2022-07-21T11:09:16;21.48;;;7.60;;
62459;SDS011;48510;39.364;-9.378;2022-07-21T11:11:26;21.60;;;7.57;;
62459;SDS011;48510;39.364;-9.378;2022-07-21T11:13:28;22.02;;;7.13;;
62459;SDS011;48510;39.364;-9.378;2022-07-21T11:16:05;22.00;;;6.97;;
62459;SDS011;48510;39.364;-9.378;2022-07-21T11:18:07;19.42;;;7.78;;
62459;SDS011;48510;39.364;-9.378;2022-07-21T11:20:14;21.08;;;7.10;;
62459;SDS011;48510;39.364;-9.378;2022-07-21T11:22:28;19.25;;;6.68;;
62459;SDS011;48510;39.364;-9.378;2022-07-21T11:24:29;19.33;;;6.47;;
62459;SDS011;48510;39.364;-9.378;2022-07-21T11:26:30;16.77;;;6.35;;
62459;SDS011;48510;39.364;-9.378;2022-07-21T11:28:31;17.88;;;6.60;;
62459;SDS011;48510;39.364;-9.378;2022-07-21T11:30:32;16.73;;;6.88;;
62459;SDS011;48510;39.364;-9.378;2022-07-21T11:32:33;18.83;;;6.53;;
62459;SDS011;48510;39.364;-9.378;2022-07-21T11:34:39;18.75;;;6.97;;
62459;SDS011;48510;39.364;-9.378;2022-07-21T11:36:42;24.52;;;6.85;;
62459;SDS011;48510;39.364;-9.378;2022-07-21T11:41:19;16.90;;;6.33;;
62459;SDS011;48510;39.364;-9.378;2022-07-21T11:43:38;16.15;;;6.18;;
62459;SDS011;48510;39.364;-9.378;2022-07-21T11:45:50;18.05;;;6.63;;
62459;SDS011;48510;39.364;-9.378;2022-07-21T11:47:54;16.42;;;6.97;;
62459;SDS011;48510;39.364;-9.378;2022-07-21T11:49:55;21.88;;;6.82;;
62459;SDS011;48510;39.364;-9.378;2022-07-21T11:52:02;17.08;;;7.13;;
62459;SDS011;48510;39.364;-9.378;2022-07-21T11:54:04;20.85;;;6.93;;
62459;SDS011;48510;39.364;-9.378;2022-07-21T11:56:12;21.10;;;7.13;;
62459;SDS011;48510;39.364;-9.378;2022-07-21T11:58:17;20.13;;;6.80;;
62459;SDS011;48510;39.364;-9.378;2022-07-21T12:00:17;26.55;;;8.25;;
62459;SDS011;48510;39.364;-9.378;2022-07-21T12:02:19;22.08;;;6.57;;
62459;SDS011;48510;39.364;-9.378;2022-07-21T12:04:32;22.63;;;6.75;;